Time;durP1;ratioP1;P1;durP2;ratioP2;P2;SDS_P1;SDS_P2;PMS_P1;PMS_P2;Temp;Humidity;BMP_temperature;BMP_pressure;BME280_temperature;BME280_humidity;BME280_pressure;Samples;Min_cycle;Max_cycle;Signal;HPM_P1;HPM_P2
2022/08/29 00:00:52;;;;;;;0.82;0.20;;;21.50;55.90;;;;;;5113811;28;20308;-67
2022/08/29 00:03:17;;;;;;;0.50;0.20;;;21.50;55.90;;;;;;5112651;28;20073;-67
2022/08/29 00:05:43;;;;;;;0.55;0.20;;;21.50;55.90;;;;;;5112483;28;20031;-67
2022/08/29 00:08:09;;;;;;;1.20;0.30;;;21.50;55.90;;;;;;5112474;28;20039;-67
2022/08/29 00:10:36;;;;;;;0.52;0.20;;;21.50;55.90;;;;;;5112575;28;20047;-67
2022/08/29 00:13:03;;;;;;;0.68;0.30;;;21.50;55.90;;;;;;5113759;28;20048;-67
2022/08/29 00:15:29;;;;;;;1.05;0.30;;;21.50;56.00;;;;;;5112221;28;20040;-67
2022/08/29 00:17:55;;;;;;;0.90;0.30;;;21.50;55.90;;;;;;5112873;28;20039;-67
2022/08/29 00:20:24;;;;;;;0.73;0.20;;;21.50;55.90;;;;;;5112364;28;20502;-67
2022/08/29 00:22:49;;;;;;;0.75;0.38;;;21.50;56.00;;;;;;5112209;28;20039;-67
2022/08/29 00:25:15;;;;;;;0.90;0.22;;;21.50;56.00;;;;;;5112470;28;20046;-67
2022/08/29 00:27:41;;;;;;;0.70;0.10;;;21.50;56.00;;;;;;5112120;28;20430;-67
2022/08/29 00:30:08;;;;;;;1.50;0.20;;;21.50;56.00;;;;;;5111909;28;20047;-67
2022/08/29 00:32:35;;;;;;;2.08;0.30;;;21.50;56.00;;;;;;5112371;28;20062;-67
2022/08/29 00:35:08;;;;;;;1.05;0.20;;;21.50;56.00;;;;;;5111643;28;20078;-67
2022/08/29 00:37:34;;;;;;;1.13;0.20;;;21.50;56.10;;;;;;5111924;28;20039;-67
2022/08/29 00:40:01;;;;;;;0.32;0.15;;;21.50;56.00;;;;;;5112106;28;20036;-67
2022/08/29 00:42:26;;;;;;;0.90;0.20;;;21.50;56.00;;;;;;5112074;28;20071;-67
2022/08/29 00:44:52;;;;;;;0.73;0.30;;;21.50;56.00;;;;;;5112020;28;20075;-67
2022/08/29 00:47:25;;;;;;;0.80;0.20;;;21.50;56.00;;;;;;5111693;28;20550;-67
2022/08/29 00:49:54;;;;;;;1.33;0.30;;;21.50;56.00;;;;;;5111735;28;20047;-67
2022/08/29 00:52:36;;;;;;;0.40;0.20;;;21.50;56.00;;;;;;5111928;28;20054;-67
2022/08/29 00:55:09;;;;;;;0.30;0.20;;;21.50;56.00;;;;;;5112943;28;20122;-67
2022/08/29 00:57:34;;;;;;;1.60;0.50;;;21.50;56.00;;;;;;5111460;28;20032;-67
2022/08/29 01:00:01;;;;;;;1.10;0.20;;;21.50;56.00;;;;;;5111768;28;20069;-67
2022/08/29 01:02:27;;;;;;;0.70;0.22;;;21.50;56.00;;;;;;5112911;28;20356;-67
2022/08/29 01:04:53;;;;;;;0.98;0.20;;;21.50;56.00;;;;;;5111703;28;20051;-67
2022/08/29 01:07:19;;;;;;;1.35;0.30;;;21.50;56.00;;;;;;5112529;28;20039;-67
2022/08/29 01:09:45;;;;;;;0.93;0.30;;;21.50;56.00;;;;;;5111638;28;20063;-67
2022/08/29 01:12:15;;;;;;;0.50;0.30;;;21.50;56.10;;;;;;5111436;28;20428;-67
2022/08/29 01:15:03;;;;;;;0.90;0.20;;;21.50;56.10;;;;;;5111387;28;20418;-67
2022/08/29 01:17:34;;;;;;;1.23;0.30;;;21.50;56.10;;;;;;5111415;28;20062;-67
2022/08/29 01:20:10;;;;;;;1.25;0.30;;;21.50;56.10;;;;;;5111553;28;20395;-67
2022/08/29 01:25:21;;;;;;;1.45;0.22;;;21.50;56.10;;;;;;5130374;27;20432;-67
2022/08/29 01:27:53;;;;;;;0.50;0.20;;;21.40;56.00;;;;;;5129235;28;20036;-67
2022/08/29 01:30:19;;;;;;;0.47;0.20;;;21.40;56.00;;;;;;5129030;28;20039;-67
2022/08/29 01:32:45;;;;;;;0.75;0.30;;;21.50;56.10;;;;;;5163666;27;20044;-67
2022/08/29 01:35:11;;;;;;;0.90;0.20;;;21.40;56.00;;;;;;5128812;28;20432;-67
2022/08/29 01:37:40;;;;;;;0.57;0.28;;;21.40;56.10;;;;;;5128989;28;20047;-67
2022/08/29 01:40:06;;;;;;;0.60;0.20;;;21.40;56.00;;;;;;5129097;28;20071;-67
2022/08/29 01:42:32;;;;;;;1.55;0.30;;;21.40;56.10;;;;;;5128899;28;20047;-67
2022/08/29 01:44:59;;;;;;;0.40;0.20;;;21.40;56.10;;;;;;5128562;28;20403;-67
2022/08/29 01:47:30;;;;;;;1.30;0.63;;;21.40;56.10;;;;;;5128797;28;20039;-67
2022/08/29 01:49:56;;;;;;;0.65;0.20;;;21.40;56.10;;;;;;5129745;27;20483;-67
2022/08/29 01:52:22;;;;;;;1.33;0.30;;;21.40;56.10;;;;;;5129747;27;20038;-67
2022/08/29 01:54:48;;;;;;;0.70;0.30;;;21.40;56.10;;;;;;5129792;28;20418;-67
2022/08/29 01:57:15;;;;;;;1.10;0.22;;;21.40;56.10;;;;;;5128472;28;20047;-67
2022/08/29 01:59:42;;;;;;;1.00;0.30;;;21.40;56.10;;;;;;5128260;28;20035;-67
2022/08/29 02:02:16;;;;;;;0.95;0.20;;;21.40;56.10;;;;;;5128387;28;20173;-67
2022/08/29 02:04:42;;;;;;;1.15;0.20;;;21.40;56.10;;;;;;5128045;28;20050;-67
2022/08/29 02:07:08;;;;;;;1.30;0.30;;;21.40;56.10;;;;;;5129688;27;20040;-67
2022/08/29 02:09:34;;;;;;;1.50;0.40;;;21.40;56.00;;;;;;5129613;27;20050;-67
2022/08/29 02:12:05;;;;;;;1.02;0.30;;;21.40;56.10;;;;;;5128397;28;20487;-67
2022/08/29 02:14:33;;;;;;;0.60;0.30;;;21.40;56.00;;;;;;5128043;28;20058;-67
2022/08/29 02:17:01;;;;;;;0.75;0.30;;;21.40;56.10;;;;;;5129335;27;20096;-67
2022/08/29 02:19:27;;;;;;;0.95;0.22;;;21.40;56.10;;;;;;5129170;27;20049;-67
2022/08/29 02:21:52;;;;;;;1.13;0.43;;;21.40;56.00;;;;;;5129248;27;20414;-67
2022/08/29 02:24:18;;;;;;;0.80;0.40;;;21.40;56.00;;;;;;5127641;28;20569;-67
2022/08/29 02:26:44;;;;;;;0.70;0.30;;;21.40;56.00;;;;;;5129200;27;20492;-67
2022/08/29 02:29:11;;;;;;;1.15;0.50;;;21.40;56.00;;;;;;5127789;28;20548;-67
2022/08/29 02:31:39;;;;;;;0.80;0.20;;;21.40;56.00;;;;;;5129140;27;20039;-67
2022/08/29 02:34:06;;;;;;;0.70;0.20;;;21.40;56.00;;;;;;5127655;28;20050;-67
2022/08/29 02:36:32;;;;;;;0.88;0.38;;;21.40;56.00;;;;;;5114767;28;20380;-67
2022/08/29 02:38:58;;;;;;;0.75;0.40;;;21.40;56.00;;;;;;5113965;28;20081;-67
2022/08/29 02:41:23;;;;;;;1.33;0.30;;;21.40;56.00;;;;;;5114369;28;20086;-67
2022/08/29 02:43:49;;;;;;;0.93;0.30;;;21.40;56.00;;;;;;5114000;28;20447;-67
2022/08/29 02:46:16;;;;;;;1.00;0.40;;;21.30;56.00;;;;;;5114054;28;20383;-67
2022/08/29 02:48:43;;;;;;;0.73;0.20;;;21.40;56.00;;;;;;5113868;28;20040;-67
2022/08/29 02:51:09;;;;;;;0.77;0.35;;;21.30;56.00;;;;;;5115267;28;20051;-67
2022/08/29 02:53:38;;;;;;;1.10;0.50;;;21.30;56.00;;;;;;5115195;28;20031;-67
2022/08/29 02:56:04;;;;;;;0.70;0.30;;;21.30;56.00;;;;;;5113581;28;20054;-67
2022/08/29 02:58:30;;;;;;;1.23;0.30;;;21.30;56.00;;;;;;5113781;28;20035;-67
2022/08/29 03:00:56;;;;;;;0.55;0.20;;;21.30;55.90;;;;;;5113506;28;20484;-67
2022/08/29 03:03:21;;;;;;;0.70;0.20;;;21.30;55.90;;;;;;5113434;28;20043;-67
2022/08/29 03:05:47;;;;;;;1.75;0.40;;;21.30;55.90;;;;;;5113287;28;20115;-67
2022/08/29 03:08:13;;;;;;;1.73;0.30;;;21.30;56.00;;;;;;5113402;28;20058;-67
2022/08/29 03:10:40;;;;;;;1.08;0.30;;;21.30;55.90;;;;;;5114493;28;20044;-67
2022/08/29 03:13:06;;;;;;;1.50;0.52;;;21.30;56.00;;;;;;5113352;28;20089;-67
2022/08/29 03:15:32;;;;;;;0.60;0.20;;;21.30;56.00;;;;;;5113449;28;20044;-67
2022/08/29 03:17:57;;;;;;;0.77;0.25;;;21.30;55.90;;;;;;5113575;28;20038;-67
2022/08/29 03:20:24;;;;;;;2.03;0.30;;;21.30;56.00;;;;;;5114348;28;20028;-67
2022/08/29 03:22:52;;;;;;;1.00;0.30;;;21.30;55.90;;;;;;5114084;28;20090;-67
2022/08/29 03:25:19;;;;;;;0.95;0.30;;;21.30;56.00;;;;;;5114594;28;20127;-67
2022/08/29 03:27:45;;;;;;;0.73;0.32;;;21.30;56.00;;;;;;5113014;28;20084;-67
2022/08/29 03:30:13;;;;;;;1.23;0.47;;;21.30;55.90;;;;;;5114683;28;20039;-67
2022/08/29 03:32:39;;;;;;;1.30;0.60;;;21.30;55.90;;;;;;5113157;28;20040;-67
2022/08/29 03:35:06;;;;;;;0.85;0.30;;;21.30;55.90;;;;;;5112777;28;20123;-67
2022/08/29 03:37:32;;;;;;;0.88;0.30;;;21.30;55.90;;;;;;5112772;28;20043;-67
2022/08/29 03:39:58;;;;;;;1.17;0.35;;;21.30;55.90;;;;;;5112798;28;20051;-67
2022/08/29 03:42:24;;;;;;;1.35;0.38;;;21.30;55.90;;;;;;5114134;28;20039;-67
2022/08/29 03:44:49;;;;;;;1.08;0.32;;;21.30;56.00;;;;;;5112570;28;20563;-67
2022/08/29 03:47:15;;;;;;;1.88;0.40;;;21.30;55.90;;;;;;5111635;28;20046;-67
2022/08/29 03:49:41;;;;;;;0.95;0.30;;;21.30;55.90;;;;;;5112478;28;20035;-67
2022/08/29 03:52:08;;;;;;;0.85;0.20;;;21.30;56.00;;;;;;5112492;28;20076;-67
2022/08/29 03:54:35;;;;;;;1.42;0.38;;;21.30;56.00;;;;;;5113903;28;20426;-67
2022/08/29 03:57:03;;;;;;;1.35;0.30;;;21.30;56.00;;;;;;5113655;28;20100;-67
2022/08/29 03:59:31;;;;;;;1.33;0.32;;;21.20;55.90;;;;;;5112276;28;20118;-67
2022/08/29 04:01:57;;;;;;;0.88;0.43;;;21.30;56.00;;;;;;5112403;28;20043;-67
2022/08/29 04:07:12;;;;;;;1.67;0.45;;;21.30;56.00;;;;;;5113214;28;20430;-67
2022/08/29 04:09:39;;;;;;;1.65;0.40;;;21.30;56.00;;;;;;5112714;28;20039;-67
2022/08/29 04:12:06;;;;;;;2.28;0.40;;;21.30;56.00;;;;;;5112309;28;20063;-66
2022/08/29 04:14:32;;;;;;;1.40;0.40;;;21.20;55.90;;;;;;5112373;28;20386;-67
2022/08/29 04:16:58;;;;;;;1.08;0.75;;;21.30;56.00;;;;;;5113256;28;20035;-67
2022/08/29 04:19:23;;;;;;;0.85;0.30;;;21.20;55.90;;;;;;5112220;28;20043;-67
2022/08/29 04:21:49;;;;;;;0.52;0.20;;;21.30;56.00;;;;;;5113340;28;20031;-67
2022/08/29 04:24:15;;;;;;;1.33;0.30;;;21.20;56.00;;;;;;5111636;28;20048;-67
2022/08/29 04:26:41;;;;;;;1.13;0.30;;;21.20;55.90;;;;;;5113055;28;20550;-67
2022/08/29 04:29:09;;;;;;;1.10;0.40;;;21.20;55.90;;;;;;5111795;28;20119;-67
2022/08/29 04:31:36;;;;;;;1.40;0.43;;;21.20;55.90;;;;;;5111794;28;20047;-67
2022/08/29 04:34:02;;;;;;;0.60;0.30;;;21.20;56.00;;;;;;5112886;28;20126;-67
2022/08/29 04:36:28;;;;;;;0.65;0.40;;;21.20;56.00;;;;;;5111978;28;20055;-67
2022/08/29 04:38:54;;;;;;;1.38;0.40;;;21.20;56.00;;;;;;5111677;28;20039;-67
2022/08/29 04:41:20;;;;;;;1.15;0.40;;;21.20;55.90;;;;;;5111933;28;20067;-67
2022/08/29 04:43:47;;;;;;;1.00;0.30;;;21.20;56.00;;;;;;5111683;28;20036;-67
2022/08/29 04:46:15;;;;;;;1.23;0.40;;;21.20;56.00;;;;;;5112829;28;20040;-67
2022/08/29 04:48:40;;;;;;;0.90;0.40;;;21.20;56.00;;;;;;5111463;28;20032;-67
2022/08/29 04:51:06;;;;;;;0.85;0.35;;;21.20;56.00;;;;;;5111533;28;20043;-67
2022/08/29 04:53:31;;;;;;;1.70;0.60;;;21.20;56.00;;;;;;5111778;28;20032;-67
2022/08/29 04:55:59;;;;;;;1.38;0.30;;;21.20;56.00;;;;;;5111422;28;20092;-67
2022/08/29 04:58:25;;;;;;;1.73;0.68;;;21.20;56.00;;;;;;5094083;28;20043;-67
2022/08/29 05:00:51;;;;;;;1.70;0.30;;;21.20;56.00;;;;;;5111290;28;20062;-67
2022/08/29 05:03:18;;;;;;;1.25;0.47;;;21.20;56.00;;;;;;5111218;28;20047;-67
2022/08/29 05:05:43;;;;;;;1.27;0.60;;;21.20;56.00;;;;;;5112672;28;20032;-67
2022/08/29 05:08:09;;;;;;;0.73;0.30;;;21.20;56.00;;;;;;5111180;28;20046;-67
2022/08/29 05:10:35;;;;;;;0.65;0.30;;;21.20;56.00;;;;;;5111354;28;20119;-67
2022/08/29 05:13:00;;;;;;;0.55;0.20;;;21.20;56.50;;;;;;5111504;28;20461;-67
2022/08/29 05:15:26;;;;;;;1.27;0.50;;;21.20;56.00;;;;;;5112422;28;20503;-67
2022/08/29 05:17:53;;;;;;;1.63;0.32;;;21.10;56.10;;;;;;5111559;28;20054;-67
2022/08/29 05:20:21;;;;;;;1.38;0.45;;;21.20;56.10;;;;;;5111070;28;20105;-67
2022/08/29 05:22:47;;;;;;;1.08;0.30;;;21.20;56.10;;;;;;5112282;28;20437;-67
2022/08/29 05:25:13;;;;;;;1.00;0.30;;;21.20;56.10;;;;;;5110642;28;20047;-67
2022/08/29 05:27:40;;;;;;;0.70;0.40;;;21.20;56.10;;;;;;5111254;28;20055;-67
2022/08/29 05:30:06;;;;;;;1.20;0.30;;;21.20;56.20;;;;;;5111164;28;20054;-67
2022/08/29 05:32:32;;;;;;;0.90;0.40;;;21.10;56.10;;;;;;5110147;28;20039;-67
2022/08/29 05:34:58;;;;;;;1.35;0.40;;;21.10;56.10;;;;;;5112217;28;20054;-66
2022/08/29 05:37:25;;;;;;;3.75;0.60;;;21.10;56.10;;;;;;5110306;28;20036;-66
2022/08/29 05:39:51;;;;;;;1.63;0.70;;;21.10;56.20;;;;;;5110555;28;20365;-66
2022/08/29 05:42:18;;;;;;;4.22;0.90;;;21.20;56.30;;;;;;5109559;28;20035;-66
2022/08/29 05:44:44;;;;;;;1.85;0.60;;;21.20;56.40;;;;;;5109632;28;20044;-66
2022/08/29 05:47:12;;;;;;;2.50;0.50;;;21.10;56.40;;;;;;5105792;28;20073;-67
2022/08/29 05:49:39;;;;;;;4.55;1.13;;;21.20;56.40;;;;;;5104877;28;20047;-67
2022/08/29 05:52:06;;;;;;;0.98;0.40;;;21.20;56.50;;;;;;5108182;28;20043;-66
2022/08/29 05:54:35;;;;;;;2.03;0.57;;;21.20;56.50;;;;;;5107063;28;20078;-67
2022/08/29 05:57:01;;;;;;;1.40;0.70;;;21.20;56.50;;;;;;5109856;28;20722;-67
2022/08/29 05:59:27;;;;;;;1.60;0.70;;;21.20;56.50;;;;;;5105873;28;20040;-68
2022/08/29 06:01:52;;;;;;;4.18;1.05;;;21.20;56.50;;;;;;5107477;28;20043;-67
2022/08/29 06:04:18;;;;;;;5.20;0.88;;;21.20;56.70;;;;;;5105232;28;20123;-66
2022/08/29 06:06:44;;;;;;;4.13;1.00;;;21.30;56.80;;;;;;5108496;28;20042;-67
2022/08/29 06:09:11;;;;;;;3.50;0.60;;;21.30;56.80;;;;;;5093015;28;20036;-67
2022/08/29 06:11:37;;;;;;;3.45;0.63;;;21.30;56.80;;;;;;5090543;28;20076;-67
2022/08/29 06:14:03;;;;;;;5.50;1.00;;;21.30;56.80;;;;;;5086780;28;20056;-67
2022/08/29 06:16:30;;;;;;;3.83;0.90;;;21.30;56.70;;;;;;5095275;28;20076;-67
2022/08/29 06:18:56;;;;;;;2.55;0.50;;;21.40;56.80;;;;;;5097543;28;20043;-67
2022/08/29 06:21:22;;;;;;;1.80;0.85;;;21.40;56.80;;;;;;5096225;27;20123;-66
2022/08/29 06:23:48;;;;;;;2.67;0.77;;;21.40;56.70;;;;;;5096971;28;20058;-66
2022/08/29 06:26:14;;;;;;;19.73;1.35;;;21.40;56.60;;;;;;5101520;28;20050;-66
2022/08/29 06:28:44;;;;;;;6.00;0.60;;;21.40;56.60;;;;;;5095432;28;20464;-66
2022/08/29 06:31:13;;;;;;;1.10;0.47;;;21.40;56.60;;;;;;5126970;27;20036;-65
2022/08/29 06:33:39;;;;;;;3.50;0.80;;;21.50;56.60;;;;;;5103583;28;20073;-66
2022/08/29 06:36:07;;;;;;;2.47;0.50;;;21.50;56.60;;;;;;5100727;28;20051;-65
2022/08/29 06:38:34;;;;;;;3.00;0.57;;;21.50;56.60;;;;;;5102480;28;20413;-66
2022/08/29 06:41:04;;;;;;;2.88;0.77;;;21.50;56.50;;;;;;5093449;28;20047;-65
2022/08/29 06:43:30;;;;;;;;;;;21.50;56.60;;;;;;5109160;27;20127;-66
2022/08/29 06:45:55;;;;;;;3.35;0.68;;;21.50;57.00;;;;;;5094213;28;20338;-66
2022/08/29 06:48:21;;;;;;;8.23;0.80;;;21.50;56.80;;;;;;5095998;28;20073;-67
2022/08/29 06:50:47;;;;;;;7.22;1.48;;;21.60;57.10;;;;;;5130497;27;20055;-68
2022/08/29 06:53:12;;;;;;;5.88;1.17;;;21.60;57.40;;;;;;5133931;27;20112;-66
2022/08/29 06:55:38;;;;;;;7.45;1.15;;;21.60;57.70;;;;;;5098757;28;20229;-66
2022/08/29 06:58:05;;;;;;;9.98;1.83;;;21.60;57.60;;;;;;5127750;27;20476;-66
2022/08/29 07:00:31;;;;;;;2.95;0.95;;;21.70;57.70;;;;;;5098253;27;20474;-66
2022/08/29 07:02:56;;;;;;;4.18;0.93;;;21.70;57.60;;;;;;5096269;27;20044;-66
2022/08/29 07:05:22;;;;;;;2.88;1.10;;;21.70;57.50;;;;;;5104209;28;20043;-66
2022/08/29 07:07:50;;;;;;;6.05;1.02;;;21.70;57.50;;;;;;5133286;27;20042;-66
2022/08/29 07:10:16;;;;;;;2.67;0.70;;;21.70;57.40;;;;;;5095698;27;20422;-67
2022/08/29 07:12:42;;;;;;;2.47;0.75;;;21.70;57.50;;;;;;5095002;28;20047;-67
2022/08/29 07:15:08;;;;;;;6.95;1.00;;;21.70;57.40;;;;;;5097390;28;20398;-67
2022/08/29 07:17:34;;;;;;;5.63;0.85;;;21.70;57.40;;;;;;5096398;27;20104;-67
2022/08/29 07:19:59;;;;;;;3.83;1.45;;;21.70;57.40;;;;;;5097843;28;20088;-67
2022/08/29 07:22:25;;;;;;;2.13;0.73;;;21.70;57.50;;;;;;5098292;28;20032;-67
2022/08/29 07:24:52;;;;;;;3.60;0.82;;;21.70;57.40;;;;;;5098605;28;20044;-67
2022/08/29 07:27:18;;;;;;;2.08;0.45;;;21.70;57.40;;;;;;5098497;27;20051;-67
2022/08/29 07:29:44;;;;;;;3.83;0.90;;;21.70;57.40;;;;;;5096720;28;20035;-68
2022/08/29 07:32:09;;;;;;;1.75;0.50;;;21.70;58.20;;;;;;5101770;27;20039;-67
2022/08/29 07:34:35;;;;;;;2.17;0.70;;;21.70;57.40;;;;;;5096446;27;20052;-67
2022/08/29 07:37:03;;;;;;;1.60;0.47;;;21.70;57.40;;;;;;5098892;27;20028;-67
2022/08/29 07:39:29;;;;;;;2.22;0.70;;;21.70;57.40;;;;;;5095274;28;20495;-67
2022/08/29 07:41:55;;;;;;;4.40;0.60;;;21.70;57.50;;;;;;5095148;28;20123;-67
2022/08/29 07:44:21;;;;;;;4.20;0.75;;;21.70;57.50;;;;;;5095939;28;20123;-67
2022/08/29 07:46:47;;;;;;;1.40;0.50;;;21.70;57.40;;;;;;5098678;28;20380;-67
2022/08/29 07:49:12;;;;;;;1.17;0.50;;;21.70;57.50;;;;;;5092712;27;20032;-68
2022/08/29 07:51:39;;;;;;;2.20;0.60;;;21.70;57.50;;;;;;5093161;27;20119;-68
2022/08/29 07:54:05;;;;;;;2.58;0.50;;;21.70;57.60;;;;;;5093667;27;20059;-68
2022/08/29 07:56:39;;;;;;;1.85;0.70;;;21.70;57.60;;;;;;5128752;27;20130;-68
2022/08/29 07:59:05;;;;;;;4.25;0.80;;;21.80;58.00;;;;;;5091648;28;20116;-69
2022/08/29 08:01:31;;;;;;;3.60;0.77;;;21.80;57.90;;;;;;5090040;28;20041;-68
2022/08/29 08:03:57;;;;;;;3.97;0.50;;;21.80;57.90;;;;;;5091315;28;20051;-69
2022/08/29 08:06:24;;;;;;;2.88;0.63;;;21.80;58.00;;;;;;5092935;27;20392;-68
2022/08/29 08:08:50;;;;;;;4.97;0.75;;;21.80;59.00;;;;;;5098310;28;20066;-69
2022/08/29 08:11:18;;;;;;;4.05;0.60;;;21.80;58.30;;;;;;5091505;28;20550;-68
2022/08/29 08:13:43;;;;;;;5.70;0.77;;;21.80;58.30;;;;;;5094445;27;20044;-72
2022/08/29 08:16:12;;;;;;;4.63;0.68;;;21.80;58.30;;;;;;5095171;27;20210;-72
2022/08/29 08:18:39;;;;;;;5.40;1.27;;;21.90;58.40;;;;;;5096356;28;20048;-68
2022/08/29 08:21:05;;;;;;;4.68;0.68;;;21.90;58.50;;;;;;5093370;27;20571;-70
2022/08/29 08:23:31;;;;;;;2.30;1.23;;;21.90;58.50;;;;;;5093038;27;20044;-72
2022/08/29 08:25:57;;;;;;;3.00;0.60;;;21.90;58.60;;;;;;5092312;28;20433;-71
2022/08/29 08:28:23;;;;;;;2.97;0.47;;;21.90;58.70;;;;;;5093100;27;20031;-69
2022/08/29 08:30:48;;;;;;;6.47;0.98;;;22.00;58.90;;;;;;5092433;28;20096;-65
2022/08/29 08:33:14;;;;;;;3.35;0.40;;;22.00;58.90;;;;;;5088826;27;20577;-65
2022/08/29 08:35:40;;;;;;;4.30;0.80;;;22.10;58.90;;;;;;5125425;27;20123;-66
2022/08/29 08:38:08;;;;;;;10.68;0.77;;;21.90;58.70;;;;;;5110015;27;20032;-66
2022/08/29 08:40:41;;;;;;;3.15;0.70;;;22.00;58.80;;;;;;5092697;28;20035;-66
2022/08/29 08:43:08;;;;;;;8.98;0.98;;;22.10;58.90;;;;;;5127182;27;20039;-66
2022/08/29 08:45:41;;;;;;;4.10;0.70;;;22.10;59.20;;;;;;5094656;28;20070;-66
2022/08/29 08:50:53;;;;;;;5.25;0.75;;;22.10;59.40;;;;;;5109903;27;20412;-66
2022/08/29 08:53:31;;;;;;;6.75;0.80;;;22.10;59.70;;;;;;5110555;27;20077;-66
2022/08/29 08:56:00;;;;;;;5.63;1.05;;;22.10;59.90;;;;;;5110003;27;20512;-65
2022/08/29 09:01:21;;;;;;;5.53;0.70;;;22.00;59.80;;;;;;5057166;28;20450;-70
2022/08/29 09:15:14;;;;;;;4.40;0.60;;;22.20;60.60;;;;;;5098571;27;20425;-71
2022/08/29 09:17:59;;;;;;;4.75;0.90;;;22.20;60.60;;;;;;5098413;28;20045;-68
2022/08/29 09:20:28;;;;;;;4.45;0.60;;;22.30;60.80;;;;;;5097225;28;20386;-68
2022/08/29 09:23:02;;;;;;;6.40;0.70;;;22.30;60.80;;;;;;5093544;28;20050;-67
2022/08/29 09:25:29;;;;;;;4.95;1.38;;;22.30;60.90;;;;;;5096312;28;20126;-66
2022/08/29 09:27:57;;;;;;;4.00;0.75;;;22.30;60.80;;;;;;5107599;28;20058;-66
2022/08/29 09:30:27;;;;;;;6.95;0.70;;;22.40;60.70;;;;;;5104564;27;20109;-70
2022/08/29 09:33:00;;;;;;;2.10;0.47;;;22.40;60.70;;;;;;5105572;28;20055;-68
2022/08/29 09:41:02;;;;;;;2.53;0.40;;;22.40;60.70;;;;;;5116641;27;1155568;-71
2022/08/29 09:46:24;;;;;;;7.28;0.73;;;22.50;61.50;;;;;;5054438;28;20432;-70
2022/08/29 09:51:36;;;;;;;6.35;1.33;;;22.50;60.60;;;;;;5068664;28;20476;-67
2022/08/29 10:00:23;;;;;;;4.47;0.73;;;22.60;60.40;;;;;;5098202;27;21015;-69
2022/08/29 10:02:52;;;;;;;4.43;0.75;;;22.60;60.20;;;;;;5082053;28;20165;-68
2022/08/29 10:08:30;;;;;;;4.15;0.60;;;22.70;60.00;;;;;;5056043;27;20453;-68
2022/08/29 10:10:59;;;;;;;4.70;0.73;;;22.70;59.90;;;;;;5064906;28;20057;-69
2022/08/29 10:13:46;;;;;;;4.60;0.90;;;22.70;59.90;;;;;;5055473;28;20048;-69
2022/08/29 10:19:12;;;;;;;4.43;0.50;;;22.70;59.80;;;;;;5100756;27;20935;-69
2022/08/29 10:30:16;;;;;;;1.95;0.60;;;22.80;60.00;;;;;;5097206;27;20350;-67
2022/08/29 10:44:53;;;;;;;2.20;0.40;;;22.70;59.70;;;;;;5068902;28;20430;-67
2022/08/29 11:01:00;;;;;;;5.03;0.65;;;22.80;60.10;;;;;;5070717;27;21246;-67
2022/08/29 11:06:36;;;;;;;2.08;0.40;;;22.80;60.20;;;;;;5110873;27;20430;-65
2022/08/29 11:09:13;;;;;;;6.15;1.45;;;22.80;60.20;;;;;;5098134;28;20581;-66
2022/08/29 11:11:45;;;;;;;4.05;0.82;;;22.90;60.30;;;;;;5108805;28;20124;-66
2022/08/29 11:14:23;;;;;;;7.55;0.98;;;22.80;60.20;;;;;;5105411;28;20048;-67
2022/08/29 11:16:51;;;;;;;2.60;0.63;;;22.90;60.30;;;;;;5095568;28;20044;-66
2022/08/29 11:19:25;;;;;;;6.35;0.60;;;22.90;60.30;;;;;;5094082;28;20044;-66
2022/08/29 11:21:59;;;;;;;5.38;0.63;;;22.90;60.30;;;;;;5094544;28;20059;-66
2022/08/29 11:24:29;;;;;;;4.05;1.15;;;22.90;60.40;;;;;;5087509;28;20044;-66
2022/08/29 11:27:12;;;;;;;4.88;0.80;;;22.80;60.30;;;;;;5092764;28;20044;-68
2022/08/29 11:29:56;;;;;;;4.90;0.85;;;22.90;60.50;;;;;;5110148;28;20039;-67
2022/08/29 11:32:42;;;;;;;6.25;0.90;;;23.00;61.30;;;;;;5110782;28;20048;-70
2022/08/29 11:43:46;;;;;;;3.63;0.50;;;23.00;60.30;;;;;;5068407;27;21215;-65
2022/08/29 11:46:14;;;;;;;2.17;0.50;;;23.00;60.30;;;;;;5076729;28;20529;-66
2022/08/29 11:48:44;;;;;;;4.72;0.82;;;23.00;60.20;;;;;;5072266;28;20106;-67
2022/08/29 12:08:22;;;;;;;8.07;1.02;;;23.10;59.80;;;;;;5113549;27;20407;-68
2022/08/29 12:10:52;;;;;;;5.25;0.88;;;23.10;59.80;;;;;;5096067;28;20048;-66
2022/08/29 12:16:49;;;;;;;7.88;0.73;;;23.10;59.80;;;;;;5096145;27;20463;-66
2022/08/29 12:36:25;;;;;;;6.50;1.02;;;23.00;60.30;;;;;;5092920;27;20464;-67
2022/08/29 12:44:57;;;;;;;4.82;0.82;;;23.20;61.40;;;;;;5128140;27;1160260;-68
2022/08/29 12:47:30;;;;;;;4.97;0.77;;;23.30;61.40;;;;;;5122549;27;20434;-68
2022/08/29 12:50:00;;;;;;;6.75;1.60;;;23.30;61.30;;;;;;5126839;27;20843;-70
2022/08/29 12:55:25;;;;;;;3.67;0.88;;;23.30;61.30;;;;;;5051752;27;21134;-66
2022/08/29 12:57:52;;;;;;;6.20;1.42;;;23.30;61.50;;;;;;5046502;28;20040;-67
2022/08/29 13:00:25;;;;;;;5.35;0.90;;;23.40;61.50;;;;;;5051535;28;20048;-68
2022/08/29 13:02:59;;;;;;;4.28;0.75;;;23.40;61.50;;;;;;5049196;28;20052;-68
2022/08/29 13:05:26;;;;;;;4.70;0.95;;;23.40;61.60;;;;;;5048892;28;20035;-71
2022/08/29 13:07:55;;;;;;;3.92;0.88;;;23.40;61.60;;;;;;5064806;28;20049;-66
2022/08/29 13:10:22;;;;;;;7.53;1.23;;;23.40;61.50;;;;;;5055685;28;20041;-65
2022/08/29 13:12:48;;;;;;;8.80;1.30;;;23.40;61.30;;;;;;5060923;28;20044;-65
2022/08/29 13:15:25;;;;;;;7.30;1.13;;;23.40;61.20;;;;;;5075986;28;20040;-65
2022/08/29 13:17:51;;;;;;;7.70;1.50;;;23.40;61.10;;;;;;5060142;28;20553;-66
2022/08/29 13:31:38;;;;;;;5.68;1.02;;;23.40;60.80;;;;;;5109036;27;20424;-65
2022/08/29 13:42:16;;;;;;;6.95;1.27;;;23.30;60.60;;;;;;5085321;28;20421;-65
2022/08/29 13:50:08;;;;;;;4.57;1.25;;;23.30;60.30;;;;;;5085833;27;20389;-66
2022/08/29 13:52:34;;;;;;;7.63;1.33;;;23.30;60.20;;;;;;5084697;28;20044;-66
2022/08/29 13:55:01;;;;;;;4.45;0.90;;;23.30;60.30;;;;;;5085131;28;20452;-67
2022/08/29 13:57:29;;;;;;;2.78;1.05;;;23.30;60.30;;;;;;5080794;28;20048;-67
2022/08/29 13:59:56;;;;;;;4.03;1.50;;;23.30;60.10;;;;;;5082758;28;20471;-66
2022/08/29 14:02:23;;;;;;;3.10;0.90;;;23.30;60.00;;;;;;5082625;28;20040;-67
2022/08/29 14:04:49;;;;;;;4.30;1.00;;;23.30;59.90;;;;;;5082799;28;20040;-67
2022/08/29 14:07:21;;;;;;;3.60;1.02;;;23.30;59.90;;;;;;5085181;28;20051;-65
2022/08/29 14:09:48;;;;;;;3.80;1.30;;;23.30;59.80;;;;;;5082375;28;20036;-64
2022/08/29 14:12:14;;;;;;;7.43;1.00;;;23.30;59.80;;;;;;5083067;28;20431;-65
2022/08/29 14:14:41;;;;;;;4.28;1.30;;;23.30;59.70;;;;;;5098445;28;20513;-65
2022/08/29 14:17:07;;;;;;;4.95;1.08;;;23.30;59.70;;;;;;5064934;28;20112;-64
2022/08/29 14:19:33;;;;;;;2.72;1.27;;;23.30;59.70;;;;;;5102988;28;20112;-64
2022/08/29 14:21:59;;;;;;;3.30;1.20;;;23.30;59.60;;;;;;5068408;28;20047;-64
2022/08/29 14:24:26;;;;;;;2.13;0.80;;;23.30;59.60;;;;;;5084753;28;20123;-64
2022/08/29 14:26:52;;;;;;;4.00;1.10;;;23.30;59.60;;;;;;5084661;28;20538;-65
2022/08/29 14:29:18;;;;;;;2.72;1.10;;;23.30;59.60;;;;;;5078584;28;20040;-65
2022/08/29 14:31:45;;;;;;;6.45;1.10;;;23.30;59.60;;;;;;5083325;28;20483;-66
2022/08/29 14:34:11;;;;;;;7.47;1.60;;;23.40;59.70;;;;;;5086164;28;20433;-65
2022/08/29 14:36:37;;;;;;;6.45;1.38;;;23.30;59.70;;;;;;5082205;28;20059;-65
2022/08/29 14:39:03;;;;;;;8.88;1.83;;;23.30;59.80;;;;;;5084681;28;20072;-66
2022/08/29 14:41:29;;;;;;;9.15;1.25;;;23.30;59.80;;;;;;5086298;28;20471;-66
2022/08/29 14:43:55;;;;;;;10.02;1.35;;;23.30;59.90;;;;;;5085609;28;20043;-65
2022/08/29 14:46:20;;;;;;;13.70;1.45;;;23.30;59.90;;;;;;5084692;28;20053;-66
2022/08/29 14:48:46;;;;;;;12.02;1.70;;;23.30;59.90;;;;;;5086697;28;20048;-66
2022/08/29 14:51:11;;;;;;;11.23;1.55;;;23.30;60.00;;;;;;5084941;28;20707;-66
2022/08/29 14:53:37;;;;;;;6.50;1.77;;;23.20;60.00;;;;;;5084355;28;20056;-66
2022/08/29 14:56:03;;;;;;;8.95;1.15;;;23.20;60.00;;;;;;5083334;28;20039;-66
2022/08/29 14:58:29;;;;;;;6.70;1.75;;;23.20;60.10;;;;;;5083012;28;20115;-66
2022/08/29 15:00:55;;;;;;;5.68;1.65;;;23.20;60.10;;;;;;5073776;28;20131;-66
2022/08/29 15:03:20;;;;;;;6.85;1.30;;;23.10;60.10;;;;;;5063793;28;20028;-65
2022/08/29 15:05:46;;;;;;;7.45;1.23;;;23.10;60.10;;;;;;5069772;28;20106;-66
2022/08/29 15:08:12;;;;;;;6.15;1.50;;;23.10;60.20;;;;;;5071998;28;20561;-65
2022/08/29 15:10:38;;;;;;;5.00;1.25;;;23.10;61.00;;;;;;5058536;28;20546;-66
2022/08/29 15:13:06;;;;;;;6.13;1.30;;;23.10;60.30;;;;;;5057302;28;20036;-66
2022/08/29 15:15:32;;;;;;;4.47;1.20;;;23.10;60.30;;;;;;5053417;28;20374;-66
2022/08/29 15:17:59;;;;;;;3.83;1.40;;;23.10;60.40;;;;;;5070169;28;20040;-66
2022/08/29 15:20:26;;;;;;;7.32;0.88;;;23.00;60.30;;;;;;5074233;28;20085;-66
2022/08/29 15:22:52;;;;;;;4.88;1.08;;;23.00;60.30;;;;;;5071935;28;20048;-66
2022/08/29 15:25:19;;;;;;;6.78;1.30;;;23.00;60.30;;;;;;5069403;28;20079;-66
2022/08/29 15:27:45;;;;;;;3.58;1.17;;;23.00;60.30;;;;;;5065899;28;20083;-66
2022/08/29 15:30:12;;;;;;;5.55;1.35;;;23.00;60.30;;;;;;5056284;28;20048;-66
2022/08/29 15:32:37;;;;;;;3.55;1.17;;;22.90;60.30;;;;;;5066298;28;20040;-66